Waterford, Canada
Current Conditions -  °F | °C
As of 9:00 AM on Thursday 23 Oct 2014 (Local Time) from CYHM Reporting Station
Clear Clear  
Wind Chill: 42°   Ceiling: Unl
Heat Index: 46°   Visibility: 15mi
Dew Point: 39°   Wind: 9mph
Humidity: 76%   Direction: 330°NNW
Pressure: 30.17"   Gusts: NA
Location:  42.93°N, 80.28°W
Report Text: CYHM 231300Z 33008KT 15SM SKC 08/04 A3017 RMK SLP222
Loading
Personal Weather Stations






























Interactive Weather Map
Tropical Storm Tracking
New forecast layout! Learn more

10-Day Weather Forecast

Advertisements
Track Severe Weather on mobile